createdAt,value
2023-02-21T00:00:08.356Z,0.93
2023-02-21T00:03:02.529Z,0.97
2023-02-21T00:05:49.059Z,0.93
2023-02-21T00:08:35.564Z,0.90
2023-02-21T00:11:23.874Z,0.73
2023-02-21T00:14:10.554Z,0.57
2023-02-21T00:16:58.392Z,0.80
2023-02-21T00:19:45.052Z,1.00
2023-02-21T00:22:31.705Z,1.03
2023-02-21T00:25:18.212Z,0.70
2023-02-21T00:28:04.742Z,1.07
2023-02-21T00:30:51.253Z,0.80
2023-02-21T00:33:39.231Z,0.90
2023-02-21T00:36:26.913Z,0.70
2023-02-21T00:39:13.722Z,0.70
2023-02-21T00:42:00.108Z,0.70
2023-02-21T00:44:46.537Z,0.70
2023-02-21T00:47:33.043Z,0.67
2023-02-21T00:50:20.715Z,0.77
2023-02-21T00:53:07.768Z,0.40
2023-02-21T00:55:54.382Z,0.70
2023-02-21T00:58:41.358Z,0.53
2023-02-21T01:01:28.395Z,1.00
2023-02-21T01:04:17.284Z,0.90
2023-02-21T01:07:10.200Z,0.83
2023-02-21T01:09:56.578Z,0.57
2023-02-21T01:12:42.960Z,0.57
2023-02-21T01:15:29.983Z,0.87
2023-02-21T01:18:17.783Z,0.40
2023-02-21T01:21:04.267Z,0.53
2023-02-21T01:23:54.754Z,0.50
2023-02-21T01:26:41.267Z,0.50
2023-02-21T01:29:27.693Z,0.70
2023-02-21T01:32:14.182Z,0.93
2023-02-21T01:35:00.969Z,0.60
2023-02-21T01:37:47.392Z,0.57
2023-02-21T01:40:37.766Z,0.67
2023-02-21T01:43:32.625Z,0.40
2023-02-21T01:46:19.162Z,0.50
2023-02-21T01:49:08.186Z,0.50
2023-02-21T01:51:58.422Z,0.50
2023-02-21T01:54:49.010Z,0.50
2023-02-21T01:57:39.019Z,0.50
2023-02-21T02:00:29.821Z,0.37
2023-02-21T02:03:18.189Z,0.50
2023-02-21T02:06:08.038Z,0.70
2023-02-21T02:08:56.027Z,0.40
2023-02-21T02:12:13.149Z,0.50
2023-02-21T02:14:56.535Z,0.60
2023-02-21T02:17:35.514Z,0.60
2023-02-21T02:20:39.861Z,0.70
2023-02-21T02:23:35.682Z,0.70
2023-02-21T02:26:38.727Z,0.50
2023-02-21T02:29:29.092Z,0.70
2023-02-21T02:32:21.456Z,0.60
2023-02-21T02:35:04.117Z,0.67
2023-02-21T02:37:37.870Z,0.70
2023-02-21T02:40:17.602Z,0.60
2023-02-21T02:42:56.465Z,0.50
2023-02-21T02:45:31.050Z,0.80
2023-02-21T02:48:05.294Z,0.80
2023-02-21T02:50:37.721Z,0.83
2023-02-21T02:53:07.360Z,0.83
2023-02-21T02:55:42.717Z,1.27
2023-02-21T02:58:13.087Z,1.23
2023-02-21T03:00:46.796Z,1.27
2023-02-21T03:03:39.433Z,1.73
2023-02-21T03:06:22.497Z,1.80
2023-02-21T03:08:57.276Z,1.77
2023-02-21T03:11:27.759Z,1.30
2023-02-21T03:14:05.631Z,1.70
2023-02-21T03:16:39.618Z,2.33
2023-02-21T03:19:13.169Z,1.43
2023-02-21T03:21:47.841Z,1.33
2023-02-21T03:24:19.464Z,1.23
2023-02-21T03:26:54.765Z,1.27
2023-02-21T03:29:47.228Z,1.50
2023-02-21T03:32:21.567Z,1.10
2023-02-21T03:34:50.794Z,1.03
2023-02-21T03:37:31.864Z,1.00
2023-02-21T03:40:01.591Z,0.90
2023-02-21T03:42:33.246Z,0.90
2023-02-21T03:45:02.989Z,1.13
2023-02-21T03:47:32.849Z,0.83
2023-02-21T03:50:01.975Z,1.00
2023-02-21T03:52:32.647Z,1.67
2023-02-21T03:55:02.447Z,1.40
2023-02-21T03:57:32.469Z,1.43
2023-02-21T04:00:02.356Z,1.10
2023-02-21T04:02:33.252Z,1.10
2023-02-21T04:05:02.462Z,0.90
2023-02-21T04:07:33.328Z,0.80
2023-02-21T04:10:02.528Z,1.30
2023-02-21T04:12:39.945Z,1.33
2023-02-21T04:15:11.384Z,1.00
2023-02-21T04:17:40.537Z,1.23
2023-02-21T04:20:12.012Z,1.63
2023-02-21T04:22:54.535Z,1.40
2023-02-21T04:25:31.046Z,1.63
2023-02-21T04:28:06.025Z,2.00
2023-02-21T04:30:35.184Z,5.43
2023-02-21T04:33:05.763Z,2.03
2023-02-21T04:35:35.372Z,1.67
2023-02-21T04:38:11.632Z,1.73
2023-02-21T04:40:40.717Z,1.70
2023-02-21T04:43:09.827Z,2.07
2023-02-21T04:45:40.027Z,1.40
2023-02-21T04:48:09.521Z,1.63
2023-02-21T04:50:38.554Z,1.60
2023-02-21T04:53:07.645Z,2.20
2023-02-21T04:55:38.087Z,1.90
2023-02-21T04:58:07.242Z,1.77
2023-02-21T05:00:36.284Z,1.50
2023-02-21T05:03:05.434Z,2.00
2023-02-21T05:05:34.485Z,1.90
2023-02-21T05:08:03.539Z,1.83
2023-02-21T05:10:44.868Z,1.93
2023-02-21T05:13:16.050Z,1.43
2023-02-21T05:15:45.255Z,1.83
2023-02-21T05:18:14.321Z,2.07
2023-02-21T05:20:43.485Z,1.60
2023-02-21T05:23:14.086Z,1.70
2023-02-21T05:25:43.772Z,2.00
2023-02-21T05:28:12.871Z,1.33
2023-02-21T05:30:43.582Z,1.87
2023-02-21T05:33:13.401Z,1.60
2023-02-21T05:35:43.089Z,2.23
2023-02-21T05:38:12.292Z,1.53
2023-02-21T05:40:41.411Z,2.40
2023-02-21T05:43:10.488Z,2.00
2023-02-21T05:45:39.676Z,2.70
2023-02-21T05:48:10.408Z,1.83
2023-02-21T05:50:39.828Z,1.73
2023-02-21T05:53:10.416Z,2.03
2023-02-21T05:55:40.119Z,2.47
2023-02-21T05:58:09.431Z,1.93
2023-02-21T06:00:38.622Z,2.00
2023-02-21T06:03:09.680Z,1.87
2023-02-21T06:05:38.760Z,1.80
2023-02-21T06:08:10.738Z,1.47
2023-02-21T06:10:40.930Z,1.87
2023-02-21T06:13:10.000Z,2.03
2023-02-21T06:15:39.107Z,2.90
2023-02-21T06:18:09.553Z,1.93
2023-02-21T06:20:38.784Z,1.17
2023-02-21T06:23:07.901Z,1.73
2023-02-21T06:25:37.000Z,2.57
2023-02-21T06:28:06.333Z,1.50
2023-02-21T06:30:35.585Z,2.07
2023-02-21T06:33:05.079Z,2.30
2023-02-21T06:35:35.605Z,1.80
2023-02-21T06:38:04.659Z,1.63
2023-02-21T06:40:33.726Z,2.10
2023-02-21T06:43:02.810Z,1.70
2023-02-21T06:45:31.942Z,1.93
2023-02-21T06:48:00.996Z,3.03
2023-02-21T06:50:30.215Z,2.00
2023-02-21T06:53:00.943Z,1.47
2023-02-21T06:55:30.015Z,2.27
2023-02-21T06:57:59.084Z,2.40
2023-02-21T07:00:28.212Z,1.90
2023-02-21T07:02:57.246Z,1.80
2023-02-21T07:05:26.313Z,2.43
2023-02-21T07:07:55.514Z,2.50
2023-02-21T07:10:26.021Z,1.87
2023-02-21T07:12:55.390Z,3.47
2023-02-21T07:15:24.603Z,2.13
2023-02-21T07:17:53.862Z,2.43
2023-02-21T07:20:22.977Z,2.27
2023-02-21T07:22:52.115Z,2.13
2023-02-21T07:25:23.256Z,2.10
2023-02-21T07:27:53.844Z,2.57
2023-02-21T07:30:23.196Z,1.73
2023-02-21T07:35:21.854Z,2.40
2023-02-21T07:37:51.044Z,3.07
2023-02-21T07:40:20.246Z,1.83
2023-02-21T07:42:49.434Z,1.90
2023-02-21T07:45:20.546Z,2.03
2023-02-21T07:47:51.008Z,1.90
2023-02-21T07:50:20.402Z,3.00
2023-02-21T07:52:49.533Z,1.83
2023-02-21T07:55:18.844Z,2.03
2023-02-21T07:57:48.067Z,2.37
2023-02-21T08:00:19.223Z,1.90
2023-02-21T08:02:49.746Z,2.33
2023-02-21T08:05:20.102Z,2.13
2023-02-21T08:07:49.388Z,2.17
2023-02-21T08:10:22.492Z,2.80
2023-02-21T08:12:51.819Z,2.00
2023-02-21T08:15:22.914Z,1.93
2023-02-21T08:17:52.812Z,2.90
2023-02-21T08:20:21.907Z,2.13
2023-02-21T08:22:51.077Z,2.57
2023-02-21T08:25:20.318Z,2.43
2023-02-21T08:27:53.544Z,2.23
2023-02-21T08:30:25.281Z,2.50
2023-02-21T08:32:54.696Z,3.27
2023-02-21T08:35:23.760Z,3.03
2023-02-21T08:37:56.698Z,2.83
2023-02-21T08:40:26.402Z,2.63
2023-02-21T08:42:57.509Z,2.13
2023-02-21T08:45:29.995Z,2.60
2023-02-21T08:48:00.037Z,2.17
2023-02-21T08:50:30.109Z,3.17
2023-02-21T08:52:59.223Z,2.63
2023-02-21T08:55:28.287Z,1.73
2023-02-21T08:57:57.527Z,1.80
2023-02-21T09:00:28.728Z,2.70
2023-02-21T09:02:59.751Z,2.33
2023-02-21T09:05:31.382Z,2.17
2023-02-21T09:08:05.192Z,1.70
2023-02-21T09:10:34.998Z,2.70
2023-02-21T09:13:06.315Z,2.70
2023-02-21T09:15:36.718Z,2.17
2023-02-21T09:18:06.609Z,1.43
2023-02-21T09:20:37.671Z,2.63
2023-02-21T09:23:06.754Z,2.03
2023-02-21T09:25:35.880Z,1.77
2023-02-21T09:28:05.129Z,2.53
2023-02-21T09:30:34.252Z,2.30
2023-02-21T09:33:04.863Z,2.23
2023-02-21T09:35:33.928Z,1.73
2023-02-21T09:38:03.547Z,2.13
2023-02-21T09:40:38.130Z,2.13
2023-02-21T09:43:12.425Z,2.53
2023-02-21T09:45:42.346Z,2.03
2023-02-21T09:48:15.129Z,2.33
2023-02-21T09:50:50.165Z,2.40
2023-02-21T09:53:22.696Z,2.57
2023-02-21T09:55:55.550Z,1.93
2023-02-21T09:58:25.444Z,1.80
2023-02-21T10:00:57.990Z,2.13
2023-02-21T10:03:49.382Z,2.27
2023-02-21T10:06:32.485Z,2.40
2023-02-21T10:09:08.034Z,2.90
2023-02-21T10:11:45.697Z,2.23
2023-02-21T10:14:29.092Z,2.53
2023-02-21T10:17:05.957Z,2.10
2023-02-21T10:19:40.050Z,2.43
2023-02-21T10:22:19.422Z,2.03
2023-02-21T10:24:50.226Z,1.60
2023-02-21T10:27:22.397Z,2.53
2023-02-21T10:29:56.047Z,2.23
2023-02-21T10:32:26.317Z,2.27
2023-02-21T10:34:58.652Z,1.90
2023-02-21T10:37:39.057Z,2.30
2023-02-21T10:40:25.731Z,2.25
2023-02-21T10:43:01.087Z,1.67
2023-02-21T10:45:36.576Z,2.88
2023-02-21T10:48:07.627Z,2.47
2023-02-21T10:50:50.661Z,1.75
2023-02-21T10:53:29.551Z,2.22
2023-02-21T10:56:28.091Z,2.20
2023-02-21T10:59:05.384Z,1.92
2023-02-21T11:01:39.591Z,1.90
2023-02-21T11:04:25.471Z,1.90
2023-02-21T11:06:58.369Z,2.67
2023-02-21T11:09:49.517Z,2.03
2023-02-21T11:12:22.409Z,1.85
2023-02-21T11:15:15.682Z,2.27
2023-02-21T11:17:46.974Z,1.93
2023-02-21T11:20:20.874Z,2.08
2023-02-21T11:22:52.717Z,2.20
2023-02-21T11:25:28.275Z,1.50
2023-02-21T11:28:04.566Z,2.23
2023-02-21T11:30:36.772Z,2.05
2023-02-21T11:33:07.530Z,1.70
2023-02-21T11:35:40.736Z,1.57
2023-02-21T11:38:32.020Z,2.10
2023-02-21T11:41:03.042Z,1.88
2023-02-21T11:43:33.643Z,1.73
2023-02-21T11:46:16.231Z,1.83
2023-02-21T11:48:56.098Z,1.67
2023-02-21T11:51:36.029Z,1.60
2023-02-21T11:54:07.682Z,2.00
2023-02-21T11:56:47.756Z,1.50
2023-02-21T11:59:36.680Z,1.97
2023-02-21T12:02:44.124Z,1.58
2023-02-21T12:05:36.068Z,1.33
2023-02-21T12:08:24.110Z,1.77
2023-02-21T12:11:04.950Z,1.83
2023-02-21T12:13:44.823Z,1.55
2023-02-21T12:16:25.122Z,1.10
2023-02-21T12:19:07.554Z,1.38
2023-02-21T12:22:11.034Z,1.80
2023-02-21T12:24:56.552Z,1.73
2023-02-21T12:27:34.967Z,1.60
2023-02-21T12:30:17.966Z,1.60
2023-02-21T12:32:59.668Z,1.65
2023-02-21T12:35:53.461Z,1.80
2023-02-21T12:38:31.435Z,1.77
2023-02-21T12:41:10.450Z,1.52
2023-02-21T12:43:50.873Z,1.70
2023-02-21T12:46:28.573Z,2.00
2023-02-21T12:49:04.542Z,1.80
2023-02-21T12:51:40.041Z,1.07
2023-02-21T12:54:15.411Z,1.58
2023-02-21T12:56:50.793Z,1.83
2023-02-21T12:59:28.287Z,1.95
2023-02-21T13:02:01.679Z,1.45
2023-02-21T13:04:42.323Z,1.60
2023-02-21T13:07:25.455Z,1.40
2023-02-21T13:10:03.522Z,1.50
2023-02-21T13:12:38.839Z,1.80
2023-02-21T13:15:20.435Z,1.50
2023-02-21T13:18:00.774Z,1.43
2023-02-21T13:20:35.439Z,1.67
2023-02-21T13:23:59.540Z,1.50
2023-02-21T13:27:20.348Z,1.73
2023-02-21T13:29:50.814Z,1.50
2023-02-21T13:32:22.191Z,1.80
2023-02-21T13:34:57.131Z,1.77
2023-02-21T13:37:29.783Z,1.58
2023-02-21T13:40:07.527Z,1.70
2023-02-21T13:42:39.575Z,1.30
2023-02-21T13:45:19.079Z,1.87
2023-02-21T13:48:22.758Z,1.67
2023-02-21T13:50:54.140Z,1.90
2023-02-21T13:53:25.740Z,1.67
2023-02-21T13:56:17.806Z,1.52
2023-02-21T13:58:48.155Z,2.00
2023-02-21T14:01:44.713Z,1.70
2023-02-21T14:05:02.212Z,2.25
2023-02-21T14:08:02.868Z,1.73
2023-02-21T14:10:38.101Z,1.70
2023-02-21T14:13:18.408Z,1.30
2023-02-21T14:15:50.339Z,1.48
2023-02-21T14:18:25.759Z,2.67
2023-02-21T14:20:56.978Z,1.80
2023-02-21T14:23:38.099Z,1.58
2023-02-21T14:26:07.992Z,1.60
2023-02-21T14:29:02.990Z,2.13
2023-02-21T14:31:49.927Z,2.17
2023-02-21T14:34:25.420Z,2.03
2023-02-21T14:36:59.129Z,1.50
2023-02-21T14:39:35.319Z,1.83
2023-02-21T14:42:27.325Z,1.47
2023-02-21T14:45:21.292Z,1.77
2023-02-21T14:48:02.674Z,1.87
2023-02-21T14:50:40.033Z,1.37
2023-02-21T14:53:34.636Z,1.50
2023-02-21T14:56:41.240Z,1.80
2023-02-21T14:59:44.148Z,2.30
2023-02-21T15:02:24.702Z,1.50
2023-02-21T15:05:01.426Z,1.57
2023-02-21T15:07:36.158Z,1.80
2023-02-21T15:10:15.245Z,1.60
2023-02-21T15:12:49.019Z,1.80
2023-02-21T15:15:23.072Z,2.10
2023-02-21T15:18:03.151Z,1.43
2023-02-21T15:20:33.783Z,1.37
2023-02-21T15:23:12.220Z,2.90
2023-02-21T15:25:41.394Z,1.33
2023-02-21T15:28:22.973Z,1.80
2023-02-21T15:31:01.940Z,1.57
2023-02-21T15:33:34.945Z,1.67
2023-02-21T15:36:07.057Z,1.37
2023-02-21T15:38:40.682Z,2.07
2023-02-21T15:41:15.767Z,2.00
2023-02-21T15:43:51.898Z,1.23
2023-02-21T15:46:25.453Z,1.53
2023-02-21T15:48:57.781Z,1.70
2023-02-21T15:51:27.390Z,1.33
2023-02-21T15:54:25.286Z,3.60
2023-02-21T15:57:24.495Z,2.17
2023-02-21T16:00:20.177Z,1.93
2023-02-21T16:02:49.338Z,4.17
2023-02-21T16:05:26.491Z,2.20
2023-02-21T16:08:01.262Z,1.53
2023-02-21T16:10:30.463Z,2.00
2023-02-21T16:13:01.364Z,1.93
2023-02-21T16:15:35.136Z,2.77
2023-02-21T16:18:08.009Z,1.53
2023-02-21T16:20:39.044Z,2.80
2023-02-21T16:23:24.344Z,1.83
2023-02-21T16:25:59.196Z,2.63
2023-02-21T16:28:28.933Z,1.73
2023-02-21T16:31:02.544Z,2.03
2023-02-21T16:33:31.976Z,1.60
2023-02-21T16:36:05.561Z,3.30
2023-02-21T16:38:34.869Z,3.07
2023-02-21T16:41:03.927Z,2.30
2023-02-21T16:43:32.966Z,5.37
2023-02-21T16:46:03.491Z,16.50
2023-02-21T16:48:33.870Z,2.97
2023-02-21T16:51:05.034Z,2.40
2023-02-21T16:53:34.124Z,2.33
2023-02-21T16:56:03.814Z,1.93
2023-02-21T16:58:35.880Z,2.00
2023-02-21T17:01:09.374Z,2.17
2023-02-21T17:03:38.501Z,2.47
2023-02-21T17:06:07.917Z,2.40
2023-02-21T17:08:37.023Z,2.10
2023-02-21T17:11:06.259Z,2.03
2023-02-21T17:13:35.296Z,1.60
2023-02-21T17:16:06.630Z,2.10
2023-02-21T17:18:35.747Z,2.07
2023-02-21T17:21:05.392Z,2.07
2023-02-21T17:23:34.500Z,2.23
2023-02-21T17:26:03.661Z,1.90
2023-02-21T17:28:34.445Z,3.83
2023-02-21T17:31:05.034Z,2.67
2023-02-21T17:33:35.461Z,2.17
2023-02-21T17:36:04.744Z,2.60
2023-02-21T17:38:34.970Z,2.10
2023-02-21T17:41:04.998Z,2.70
2023-02-21T17:43:34.293Z,2.43
2023-02-21T17:46:05.129Z,2.60
2023-02-21T17:48:34.385Z,1.67
2023-02-21T17:51:03.861Z,1.83
2023-02-21T17:53:32.970Z,3.10
2023-02-21T17:56:02.135Z,2.00
2023-02-21T17:58:31.626Z,1.60
2023-02-21T18:01:01.378Z,1.70
2023-02-21T18:03:31.818Z,1.60
2023-02-21T18:06:01.183Z,2.60
2023-02-21T18:08:30.254Z,4.97
2023-02-21T18:10:59.290Z,3.80
2023-02-21T18:13:28.370Z,2.53
2023-02-21T18:15:57.646Z,1.87
2023-02-21T18:18:26.707Z,17.20
2023-02-21T18:20:57.896Z,5.67
2023-02-21T18:23:27.162Z,4.40
2023-02-21T18:25:56.497Z,2.10
2023-02-21T18:28:26.819Z,2.40
2023-02-21T18:30:56.264Z,2.00
2023-02-21T18:33:27.658Z,2.10
2023-02-21T18:35:59.396Z,2.47
2023-02-21T18:38:29.144Z,2.67
2023-02-21T18:41:01.703Z,2.23
2023-02-21T18:43:31.732Z,2.70
2023-02-21T18:46:00.957Z,2.33
2023-02-21T18:48:30.208Z,2.03
2023-02-21T18:51:00.703Z,2.97
2023-02-21T18:53:29.956Z,2.63
2023-02-21T18:55:59.038Z,3.03
2023-02-21T18:58:28.173Z,3.17
2023-02-21T19:00:57.386Z,2.90
2023-02-21T19:03:26.484Z,2.27
2023-02-21T19:05:55.600Z,2.57
2023-02-21T19:08:26.309Z,3.40
2023-02-21T19:10:55.391Z,3.67
2023-02-21T19:13:24.959Z,3.10
2023-02-21T19:15:53.972Z,3.47
2023-02-21T19:18:23.068Z,3.60
2023-02-21T19:20:52.153Z,4.87
2023-02-21T19:23:21.330Z,4.00
2023-02-21T19:25:51.813Z,3.40
2023-02-21T19:28:22.886Z,4.40
2023-02-21T19:30:52.283Z,4.33
2023-02-21T19:33:22.975Z,4.03
2023-02-21T19:35:52.680Z,3.60
2023-02-21T19:38:21.783Z,4.67
2023-02-21T19:40:52.205Z,4.10
2023-02-21T19:43:21.316Z,4.63
2023-02-21T19:45:52.102Z,3.73
2023-02-21T19:48:22.761Z,4.70
2023-02-21T19:50:51.957Z,4.57
2023-02-21T19:53:21.250Z,4.53
2023-02-21T19:55:51.712Z,4.50
2023-02-21T19:58:20.811Z,5.13
2023-02-21T20:00:50.614Z,4.17
2023-02-21T20:03:19.859Z,4.60
2023-02-21T20:05:49.072Z,4.80
2023-02-21T20:08:18.139Z,5.33
2023-02-21T20:10:47.185Z,4.73
2023-02-21T20:13:17.636Z,4.83
2023-02-21T20:15:47.375Z,4.90
2023-02-21T20:18:17.688Z,5.13
2023-02-21T20:20:47.306Z,5.03
2023-02-21T20:23:18.047Z,4.83
2023-02-21T20:25:47.361Z,4.97
2023-02-21T20:28:18.232Z,5.43
2023-02-21T20:30:50.401Z,4.97
2023-02-21T20:33:20.648Z,4.83
2023-02-21T20:35:50.905Z,4.80
2023-02-21T20:38:19.959Z,5.70
2023-02-21T20:40:49.435Z,5.10
2023-02-21T20:43:19.881Z,5.47
2023-02-21T20:45:49.026Z,6.30
2023-02-21T20:48:27.094Z,5.37
2023-02-21T20:50:56.152Z,6.47
2023-02-21T20:53:26.235Z,6.10
2023-02-21T20:55:55.746Z,6.40
2023-02-21T20:58:27.165Z,6.00
2023-02-21T21:00:56.264Z,6.00
2023-02-21T21:03:29.332Z,6.00
2023-02-21T21:05:58.514Z,5.97
2023-02-21T21:08:27.592Z,6.00
2023-02-21T21:10:57.359Z,6.30
2023-02-21T21:13:27.843Z,6.33
2023-02-21T21:15:57.073Z,6.03
2023-02-21T21:18:27.043Z,6.03
2023-02-21T21:20:56.098Z,6.00
2023-02-21T21:23:25.929Z,5.50
2023-02-21T21:25:55.021Z,5.40
2023-02-21T21:28:24.190Z,5.40
2023-02-21T21:30:54.692Z,5.10
2023-02-21T21:33:23.983Z,5.60
2023-02-21T21:35:58.358Z,5.03
2023-02-21T21:38:28.396Z,5.20
2023-02-21T21:40:57.837Z,5.17
2023-02-21T21:43:28.361Z,6.23
2023-02-21T21:45:58.901Z,5.30
2023-02-21T21:48:28.001Z,5.27
2023-02-21T21:50:57.522Z,6.10
2023-02-21T21:53:26.769Z,5.63
2023-02-21T21:55:56.649Z,5.53
2023-02-21T21:58:26.669Z,5.43
2023-02-21T22:00:55.900Z,5.10
2023-02-21T22:03:27.980Z,6.27
2023-02-21T22:06:00.365Z,5.83
2023-02-21T22:08:31.172Z,4.87
2023-02-21T22:11:00.925Z,5.60
2023-02-21T22:13:32.520Z,4.57
2023-02-21T22:16:01.668Z,5.37
2023-02-21T22:18:32.113Z,5.03
2023-02-21T22:21:01.381Z,5.93
2023-02-21T22:23:30.376Z,5.73
2023-02-21T22:25:59.469Z,5.23
2023-02-21T22:28:28.525Z,5.83
2023-02-21T22:30:58.148Z,5.67
2023-02-21T22:33:27.202Z,5.20
2023-02-21T22:35:58.084Z,5.67
2023-02-21T22:38:27.207Z,6.10
2023-02-21T22:40:59.862Z,5.50
2023-02-21T22:43:29.066Z,6.20
2023-02-21T22:45:58.561Z,6.37
2023-02-21T22:48:27.569Z,5.57
2023-02-21T22:50:58.006Z,5.40
2023-02-21T22:53:27.621Z,5.70
2023-02-21T22:55:58.878Z,4.97
2023-02-21T22:58:27.997Z,6.03
2023-02-21T23:00:59.997Z,5.57
2023-02-21T23:03:31.935Z,6.43
2023-02-21T23:06:02.665Z,5.97
2023-02-21T23:08:34.546Z,6.07
2023-02-21T23:11:04.450Z,5.83
2023-02-21T23:13:33.553Z,5.83
2023-02-21T23:16:02.661Z,5.23
2023-02-21T23:18:31.950Z,5.93
2023-02-21T23:21:04.759Z,5.70
2023-02-21T23:23:33.834Z,5.27
2023-02-21T23:26:07.541Z,5.03
2023-02-21T23:28:36.657Z,5.87
2023-02-21T23:31:05.991Z,5.93
2023-02-21T23:33:35.062Z,6.10
2023-02-21T23:36:06.159Z,6.63
2023-02-21T23:38:38.333Z,6.53
2023-02-21T23:41:08.899Z,5.90
2023-02-21T23:43:39.850Z,5.67
2023-02-21T23:46:10.309Z,6.03
2023-02-21T23:48:39.391Z,5.90
2023-02-21T23:51:10.106Z,5.83
2023-02-21T23:53:39.234Z,6.33
2023-02-21T23:56:12.897Z,6.33
2023-02-21T23:58:45.467Z,6.53
